sensor_id;sensor_type;location;lat;lon;timestamp;pressure;altitude;pressure_sealevel;temperature;humidity
24610;BME280;12758;47.890;11.694;2023-01-28T00:00:26;94027.03;;;-0.68;100.00
24610;BME280;12758;47.890;11.694;2023-01-28T00:02:52;94031.91;;;-0.60;100.00
24610;BME280;12758;47.890;11.694;2023-01-28T00:05:18;94035.03;;;-0.68;100.00
24610;BME280;12758;47.890;11.694;2023-01-28T00:07:44;94031.84;;;-0.70;100.00
24610;BME280;12758;47.890;11.694;2023-01-28T00:10:10;94036.59;;;-0.72;100.00
24610;BME280;12758;47.890;11.694;2023-01-28T00:12:36;94033.72;;;-0.71;100.00
24610;BME280;12758;47.890;11.694;2023-01-28T00:15:03;94035.31;;;-0.69;100.00
24610;BME280;12758;47.890;11.694;2023-01-28T00:17:30;94032.13;;;-0.66;100.00
24610;BME280;12758;47.890;11.694;2023-01-28T00:19:56;94029.19;;;-0.65;100.00
24610;BME280;12758;47.890;11.694;2023-01-28T00:22:22;94027.91;;;-0.62;100.00
24610;BME280;12758;47.890;11.694;2023-01-28T00:24:48;94031.81;;;-1.02;100.00
24610;BME280;12758;47.890;11.694;2023-01-28T00:27:14;94021.47;;;-0.99;100.00
24610;BME280;12758;47.890;11.694;2023-01-28T00:29:40;94025.44;;;-0.69;100.00
24610;BME280;12758;47.890;11.694;2023-01-28T00:32:06;94030.81;;;-0.64;100.00
24610;BME280;12758;47.890;11.694;2023-01-28T00:34:32;94032.66;;;-0.97;100.00
24610;BME280;12758;47.890;11.694;2023-01-28T00:36:58;94025.91;;;-0.77;100.00
24610;BME280;12758;47.890;11.694;2023-01-28T00:39:25;94017.28;;;-0.89;100.00
24610;BME280;12758;47.890;11.694;2023-01-28T00:41:51;94031.03;;;-0.71;100.00
24610;BME280;12758;47.890;11.694;2023-01-28T00:44:18;94031.84;;;-0.70;100.00
24610;BME280;12758;47.890;11.694;2023-01-28T00:46:45;94033.22;;;-0.62;100.00
24610;BME280;12758;47.890;11.694;2023-01-28T00:49:11;94028.69;;;-0.62;100.00
24610;BME280;12758;47.890;11.694;2023-01-28T00:51:37;94025.50;;;-0.64;100.00
24610;BME280;12758;47.890;11.694;2023-01-28T00:54:03;94026.31;;;-0.58;100.00
24610;BME280;12758;47.890;11.694;2023-01-28T00:56:29;94020.69;;;-0.62;100.00
24610;BME280;12758;47.890;11.694;2023-01-28T00:58:55;94027.16;;;-0.58;100.00
24610;BME280;12758;47.890;11.694;2023-01-28T01:01:24;94021.34;;;-0.50;100.00
24610;BME280;12758;47.890;11.694;2023-01-28T01:03:50;94029.91;;;-0.48;100.00
24610;BME280;12758;47.890;11.694;2023-01-28T01:06:23;94027.72;;;-0.51;100.00
24610;BME280;12758;47.890;11.694;2023-01-28T01:08:49;94032.50;;;-0.53;100.00
24610;BME280;12758;47.890;11.694;2023-01-28T01:11:16;94037.25;;;-0.60;100.00
24610;BME280;12758;47.890;11.694;2023-01-28T01:13:42;94037.03;;;-0.53;100.00
24610;BME280;12758;47.890;11.694;2023-01-28T01:16:10;94036.53;;;-0.50;100.00
24610;BME280;12758;47.890;11.694;2023-01-28T01:18:37;94027.91;;;-0.62;100.00
24610;BME280;12758;47.890;11.694;2023-01-28T01:21:06;94034.63;;;-0.55;100.00
24610;BME280;12758;47.890;11.694;2023-01-28T01:23:33;94025.28;;;-0.57;100.00
24610;BME280;12758;47.890;11.694;2023-01-28T01:25:59;94023.38;;;-0.62;100.00
24610;BME280;12758;47.890;11.694;2023-01-28T01:28:25;94031.78;;;-0.43;100.00
24610;BME280;12758;47.890;11.694;2023-01-28T01:30:58;94029.13;;;-0.43;100.00
24610;BME280;12758;47.890;11.694;2023-01-28T01:33:24;94031.56;;;-0.36;100.00
24610;BME280;12758;47.890;11.694;2023-01-28T01:35:52;94033.53;;;-0.59;100.00
24610;BME280;12758;47.890;11.694;2023-01-28T01:38:19;94035.22;;;-0.48;100.00
24610;BME280;12758;47.890;11.694;2023-01-28T01:40:45;94034.97;;;-1.05;100.00
24610;BME280;12758;47.890;11.694;2023-01-28T01:43:17;94036.66;;;-0.94;100.00
24610;BME280;12758;47.890;11.694;2023-01-28T01:45:44;94033.94;;;-0.72;100.00
24610;BME280;12758;47.890;11.694;2023-01-28T01:48:14;94041.50;;;-0.59;100.00
24610;BME280;12758;47.890;11.694;2023-01-28T01:50:42;94044.19;;;-0.59;100.00
24610;BME280;12758;47.890;11.694;2023-01-28T01:53:12;94043.09;;;-0.63;100.00
24610;BME280;12758;47.890;11.694;2023-01-28T01:55:42;94052.16;;;-0.64;100.00
24610;BME280;12758;47.890;11.694;2023-01-28T01:58:11;94043.59;;;-0.66;100.00
24610;BME280;12758;47.890;11.694;2023-01-28T02:00:39;94043.03;;;-0.68;100.00
24610;BME280;12758;47.890;11.694;2023-01-28T02:03:06;94050.50;;;-0.70;100.00
24610;BME280;12758;47.890;11.694;2023-01-28T02:05:33;94049.44;;;-0.69;100.00
24610;BME280;12758;47.890;11.694;2023-01-28T02:07:59;94046.19;;;-0.71;100.00
24610;BME280;12758;47.890;11.694;2023-01-28T02:10:41;94041.94;;;-0.72;100.00
24610;BME280;12758;47.890;11.694;2023-01-28T02:13:07;94046.19;;;-0.71;100.00
24610;BME280;12758;47.890;11.694;2023-01-28T02:15:33;94047.84;;;-0.70;100.00
24610;BME280;12758;47.890;11.694;2023-01-28T02:17:59;94046.19;;;-0.71;100.00
24610;BME280;12758;47.890;11.694;2023-01-28T02:20:30;94050.00;;;-0.67;100.00
24610;BME280;12758;47.890;11.694;2023-01-28T02:23:12;94057.13;;;-0.73;100.00
24610;BME280;12758;47.890;11.694;2023-01-28T02:25:56;94049.94;;;-0.72;100.00
24610;BME280;12758;47.890;11.694;2023-01-28T02:28:31;94053.97;;;-0.69;100.00
24610;BME280;12758;47.890;11.694;2023-01-28T02:31:03;94055.84;;;-0.65;100.00
24610;BME280;12758;47.890;11.694;2023-01-28T02:33:36;94049.16;;;-0.67;100.00
24610;BME280;12758;47.890;11.694;2023-01-28T02:36:09;94054.19;;;-0.71;100.00
24610;BME280;12758;47.890;11.694;2023-01-28T02:38:41;94053.66;;;-0.73;100.00
24610;BME280;12758;47.890;11.694;2023-01-28T02:41:13;94060.22;;;-0.86;100.00
24610;BME280;12758;47.890;11.694;2023-01-28T02:43:43;94055.69;;;-0.85;100.00
24610;BME280;12758;47.890;11.694;2023-01-28T02:46:14;94057.56;;;-0.81;100.00
24610;BME280;12758;47.890;11.694;2023-01-28T02:49:01;94058.41;;;-0.80;100.00
24610;BME280;12758;47.890;11.694;2023-01-28T02:51:35;94053.06;;;-0.80;100.00
24610;BME280;12758;47.890;11.694;2023-01-28T02:54:07;94056.78;;;-0.81;100.00
24610;BME280;12758;47.890;11.694;2023-01-28T02:56:39;94055.97;;;-0.82;100.00
24610;BME280;12758;47.890;11.694;2023-01-28T02:59:10;94066.63;;;-0.82;100.00
24610;BME280;12758;47.890;11.694;2023-01-28T03:01:58;94063.16;;;-0.82;100.00
24610;BME280;12758;47.890;11.694;2023-01-28T03:04:28;94059.94;;;-0.84;100.00
24610;BME280;12758;47.890;11.694;2023-01-28T03:06:57;94058.91;;;-0.83;100.00
24610;BME280;12758;47.890;11.694;2023-01-28T03:09:25;94057.84;;;-0.82;100.00
24610;BME280;12758;47.890;11.694;2023-01-28T03:11:54;94063.91;;;-0.87;100.00
24610;BME280;12758;47.890;11.694;2023-01-28T03:14:41;94065.84;;;-0.82;100.00
24610;BME280;12758;47.890;11.694;2023-01-28T03:17:27;94067.44;;;-0.81;100.00
24610;BME280;12758;47.890;11.694;2023-01-28T03:20:15;94071.16;;;-0.82;100.00
24610;BME280;12758;47.890;11.694;2023-01-28T03:23:02;94077.00;;;-0.85;100.00
24610;BME280;12758;47.890;11.694;2023-01-28T03:25:50;94073.25;;;-0.84;100.00
24610;BME280;12758;47.890;11.694;2023-01-28T03:28:36;94073.25;;;-0.84;100.00
24610;BME280;12758;47.890;11.694;2023-01-28T03:31:22;94079.38;;;-0.84;100.00
24610;BME280;12758;47.890;11.694;2023-01-28T03:34:07;94081.53;;;-0.86;100.00
24610;BME280;12758;47.890;11.694;2023-01-28T03:36:53;94078.06;;;-0.86;100.00
24610;BME280;12758;47.890;11.694;2023-01-28T03:39:21;94084.41;;;-0.87;100.00
24610;BME280;12758;47.890;11.694;2023-01-28T03:41:58;94080.72;;;-0.86;100.00
24610;BME280;12758;47.890;11.694;2023-01-28T03:44:25;94089.75;;;-0.87;100.00
24610;BME280;12758;47.890;11.694;2023-01-28T03:47:10;94088.16;;;-0.88;100.00
24610;BME280;12758;47.890;11.694;2023-01-28T03:49:38;94092.69;;;-0.89;100.00
24610;BME280;12758;47.890;11.694;2023-01-28T03:52:04;94089.44;;;-0.91;100.00
24610;BME280;12758;47.890;11.694;2023-01-28T03:54:30;94091.31;;;-0.91;100.00
24610;BME280;12758;47.890;11.694;2023-01-28T03:56:56;94091.03;;;-0.90;100.00
24610;BME280;12758;47.890;11.694;2023-01-28T03:59:22;94086.56;;;-0.89;100.00
24610;BME280;12758;47.890;11.694;2023-01-28T04:01:48;94082.03;;;-0.89;100.00
24610;BME280;12758;47.890;11.694;2023-01-28T04:04:15;94090.00;;;-0.89;100.00
24610;BME280;12758;47.890;11.694;2023-01-28T04:06:49;94084.41;;;-0.87;100.00
24610;BME280;12758;47.890;11.694;2023-01-28T04:09:16;94085.22;;;-0.87;100.00
24610;BME280;12758;47.890;11.694;2023-01-28T04:11:42;94086.28;;;-0.88;100.00
24610;BME280;12758;47.890;11.694;2023-01-28T04:14:08;94089.25;;;-0.84;100.00
24610;BME280;12758;47.890;11.694;2023-01-28T04:16:34;94092.97;;;-0.85;100.00
24610;BME280;12758;47.890;11.694;2023-01-28T04:19:00;94095.38;;;-0.84;100.00
24610;BME280;12758;47.890;11.694;2023-01-28T04:21:27;94090.03;;;-0.84;100.00
24610;BME280;12758;47.890;11.694;2023-01-28T04:23:53;94099.91;;;-0.84;100.00
24610;BME280;12758;47.890;11.694;2023-01-28T04:26:19;94101.53;;;-0.83;100.00
24610;BME280;12758;47.890;11.694;2023-01-28T04:28:44;94108.47;;;-0.82;100.00
24610;BME280;12758;47.890;11.694;2023-01-28T04:31:10;94103.13;;;-0.82;100.00
24610;BME280;12758;47.890;11.694;2023-01-28T04:33:36;94111.13;;;-0.82;100.00
24610;BME280;12758;47.890;11.694;2023-01-28T04:36:03;94119.13;;;-0.82;100.00
24610;BME280;12758;47.890;11.694;2023-01-28T04:38:30;94113.78;;;-0.82;100.00
24610;BME280;12758;47.890;11.694;2023-01-28T04:40:56;94110.06;;;-0.81;100.00
24610;BME280;12758;47.890;11.694;2023-01-28T04:43:22;94119.13;;;-0.82;100.00
24610;BME280;12758;47.890;11.694;2023-01-28T04:45:48;94119.91;;;-0.82;100.00
24610;BME280;12758;47.890;11.694;2023-01-28T04:48:14;94119.91;;;-0.82;100.00
24610;BME280;12758;47.890;11.694;2023-01-28T04:50:41;94122.03;;;-0.84;100.00
24610;BME280;12758;47.890;11.694;2023-01-28T04:53:08;94122.03;;;-0.84;100.00
24610;BME280;12758;47.890;11.694;2023-01-28T04:55:35;94123.66;;;-0.83;100.00
24610;BME280;12758;47.890;11.694;2023-01-28T04:58:01;94130.56;;;-0.82;100.00
24610;BME280;12758;47.890;11.694;2023-01-28T05:00:27;94134.03;;;-0.81;100.00
24610;BME280;12758;47.890;11.694;2023-01-28T05:02:53;94126.53;;;-0.84;100.00
24610;BME280;12758;47.890;11.694;2023-01-28T05:05:19;94137.28;;;-0.79;100.00
24610;BME280;12758;47.890;11.694;2023-01-28T05:07:49;94134.59;;;-0.79;100.00
24610;BME280;12758;47.890;11.694;2023-01-28T05:10:15;94128.78;;;-0.76;100.00
24610;BME280;12758;47.890;11.694;2023-01-28T05:12:43;94138.94;;;-0.73;100.00
24610;BME280;12758;47.890;11.694;2023-01-28T05:15:09;94142.63;;;-0.74;100.00
24610;BME280;12758;47.890;11.694;2023-01-28T05:17:35;94137.88;;;-0.72;100.00
24610;BME280;12758;47.890;11.694;2023-01-28T05:20:02;94139.38;;;-0.81;100.00
24610;BME280;12758;47.890;11.694;2023-01-28T05:22:29;94139.75;;;-0.73;100.00
24610;BME280;12758;47.890;11.694;2023-01-28T05:24:55;94141.59;;;-0.73;100.00
24610;BME280;12758;47.890;11.694;2023-01-28T05:27:21;94135.72;;;-0.75;100.00
24610;BME280;12758;47.890;11.694;2023-01-28T05:29:48;94142.63;;;-0.74;100.00
24610;BME280;12758;47.890;11.694;2023-01-28T05:32:14;94143.13;;;-0.77;100.00
24610;BME280;12758;47.890;11.694;2023-01-28T05:34:40;94148.22;;;-0.76;100.00
24610;BME280;12758;47.890;11.694;2023-01-28T05:37:06;94147.44;;;-0.76;100.00
24610;BME280;12758;47.890;11.694;2023-01-28T05:39:32;94150.59;;;-0.79;100.00
24610;BME280;12758;47.890;11.694;2023-01-28T05:41:58;94148.72;;;-0.79;100.00
24610;BME280;12758;47.890;11.694;2023-01-28T05:44:24;94165.78;;;-0.80;100.00
24610;BME280;12758;47.890;11.694;2023-01-28T05:46:50;94167.78;;;-0.65;100.00
24610;BME280;12758;47.890;11.694;2023-01-28T05:49:17;94164.09;;;-0.64;100.00
24610;BME280;12758;47.890;11.694;2023-01-28T05:51:43;94169.41;;;-0.64;100.00
24610;BME280;12758;47.890;11.694;2023-01-28T05:54:09;94162.97;;;-0.68;100.00
24610;BME280;12758;47.890;11.694;2023-01-28T05:56:35;94172.63;;;-0.62;100.00
24610;BME280;12758;47.890;11.694;2023-01-28T05:59:02;94173.00;;;-0.75;100.00
24610;BME280;12758;47.890;11.694;2023-01-28T06:01:28;94169.78;;;-0.77;100.00
24610;BME280;12758;47.890;11.694;2023-01-28T06:03:54;94171.66;;;-0.78;100.00
24610;BME280;12758;47.890;11.694;2023-01-28T06:06:20;94177.03;;;-0.73;100.00
24610;BME280;12758;47.890;11.694;2023-01-28T06:08:46;94179.16;;;-0.75;100.00
24610;BME280;12758;47.890;11.694;2023-01-28T06:11:12;94183.69;;;-0.75;100.00
24610;BME280;12758;47.890;11.694;2023-01-28T06:13:38;94186.34;;;-0.75;100.00
24610;BME280;12758;47.890;11.694;2023-01-28T06:16:06;94182.56;;;-0.79;100.00
24610;BME280;12758;47.890;11.694;2023-01-28T06:18:33;94185.25;;;-0.79;100.00
24610;BME280;12758;47.890;11.694;2023-01-28T06:20:59;94184.66;;;-0.81;100.00
24610;BME280;12758;47.890;11.694;2023-01-28T06:23:25;94184.66;;;-0.81;100.00
24610;BME280;12758;47.890;11.694;2023-01-28T06:25:52;94191.63;;;-0.80;100.00
24610;BME280;12758;47.890;11.694;2023-01-28T06:28:19;94196.97;;;-0.80;100.00
24610;BME280;12758;47.890;11.694;2023-01-28T06:30:47;94209.22;;;-0.79;100.00
24610;BME280;12758;47.890;11.694;2023-01-28T06:33:13;94196.97;;;-0.80;100.00
24610;BME280;12758;47.890;11.694;2023-01-28T06:35:39;94209.22;;;-0.79;100.00
24610;BME280;12758;47.890;11.694;2023-01-28T06:38:05;94209.22;;;-0.79;100.00
24610;BME280;12758;47.890;11.694;2023-01-28T06:40:31;94218.28;;;-0.80;100.00
24610;BME280;12758;47.890;11.694;2023-01-28T06:42:57;94210.28;;;-0.80;100.00
24610;BME280;12758;47.890;11.694;2023-01-28T06:45:23;94212.59;;;-0.84;100.00
24610;BME280;12758;47.890;11.694;2023-01-28T06:47:49;94205.50;;;-0.78;100.00
24610;BME280;12758;47.890;11.694;2023-01-28T06:50:16;94210.81;;;-0.78;100.00
24610;BME280;12758;47.890;11.694;2023-01-28T06:52:42;94215.66;;;-0.75;100.00
24610;BME280;12758;47.890;11.694;2023-01-28T06:55:09;94209.22;;;-0.79;100.00
24610;BME280;12758;47.890;11.694;2023-01-28T06:57:36;94210.81;;;-0.78;100.00
24610;BME280;12758;47.890;11.694;2023-01-28T07:00:03;94210.00;;;-0.79;100.00
24610;BME280;12758;47.890;11.694;2023-01-28T07:02:29;94218.28;;;-0.80;100.00
24610;BME280;12758;47.890;11.694;2023-01-28T07:04:55;94223.59;;;-0.80;100.00
24610;BME280;12758;47.890;11.694;2023-01-28T07:07:21;94216.03;;;-0.88;100.00
24610;BME280;12758;47.890;11.694;2023-01-28T07:09:47;94226.00;;;-0.79;100.00
24610;BME280;12758;47.890;11.694;2023-01-28T07:12:14;94230.03;;;-0.76;100.00
24610;BME280;12758;47.890;11.694;2023-01-28T07:14:40;94227.38;;;-0.76;100.00
24610;BME280;12758;47.890;11.694;2023-01-28T07:17:06;94229.97;;;-0.81;100.00
24610;BME280;12758;47.890;11.694;2023-01-28T07:19:32;94236.06;;;-0.86;100.00
24610;BME280;12758;47.890;11.694;2023-01-28T07:21:58;94242.25;;;-0.80;100.00
24610;BME280;12758;47.890;11.694;2023-01-28T07:24:25;94244.91;;;-0.80;100.00
24610;BME280;12758;47.890;11.694;2023-01-28T07:26:51;94237.97;;;-0.81;100.00
24610;BME280;12758;47.890;11.694;2023-01-28T07:29:17;94242.25;;;-0.80;100.00
24610;BME280;12758;47.890;11.694;2023-01-28T07:31:43;94237.97;;;-0.81;100.00
24610;BME280;12758;47.890;11.694;2023-01-28T07:34:10;94244.66;;;-0.79;100.00
24610;BME280;12758;47.890;11.694;2023-01-28T07:36:36;94242.00;;;-0.79;100.00
24610;BME280;12758;47.890;11.694;2023-01-28T07:39:02;94244.41;;;-0.77;100.00
24610;BME280;12758;47.890;11.694;2023-01-28T07:41:28;94247.06;;;-0.77;100.00
24610;BME280;12758;47.890;11.694;2023-01-28T07:43:54;94244.41;;;-0.77;100.00
24610;BME280;12758;47.890;11.694;2023-01-28T07:46:20;94253.72;;;-0.80;100.00
24610;BME280;12758;47.890;11.694;2023-01-28T07:48:46;94252.38;;;-0.77;100.00
24610;BME280;12758;47.890;11.694;2023-01-28T07:51:12;94259.59;;;-0.78;100.00
24610;BME280;12758;47.890;11.694;2023-01-28T07:53:38;94263.00;;;-0.82;100.00
24610;BME280;12758;47.890;11.694;2023-01-28T07:56:05;94262.31;;;-0.73;100.00
24610;BME280;12758;47.890;11.694;2023-01-28T07:58:31;94272.06;;;-0.83;100.00
24610;BME280;12758;47.890;11.694;2023-01-28T08:00:59;94269.13;;;-0.82;100.00
24610;BME280;12758;47.890;11.694;2023-01-28T08:03:26;94271.72;;;-0.87;100.00
24610;BME280;12758;47.890;11.694;2023-01-28T08:05:53;94275.09;;;-0.75;100.00
24610;BME280;12758;47.890;11.694;2023-01-28T08:08:20;94281.56;;;-0.71;100.00
24610;BME280;12758;47.890;11.694;2023-01-28T08:10:46;94286.34;;;-0.67;100.00
24610;BME280;12758;47.890;11.694;2023-01-28T08:13:13;94284.75;;;-0.68;100.00
24610;BME280;12758;47.890;11.694;2023-01-28T08:15:40;94289.28;;;-0.69;100.00
24610;BME280;12758;47.890;11.694;2023-01-28T08:18:07;94289.16;;;-0.79;100.00
24610;BME280;12758;47.890;11.694;2023-01-28T08:20:34;94293.50;;;-0.73;100.00
24610;BME280;12758;47.890;11.694;2023-01-28T08:23:05;94297.78;;;-0.72;100.00
24610;BME280;12758;47.890;11.694;2023-01-28T08:25:32;94291.38;;;-0.71;100.00
24610;BME280;12758;47.890;11.694;2023-01-28T08:27:58;94296.72;;;-0.71;100.00
24610;BME280;12758;47.890;11.694;2023-01-28T08:30:24;94294.63;;;-0.69;100.00
24610;BME280;12758;47.890;11.694;2023-01-28T08:32:50;94294.13;;;-0.66;100.00
24610;BME280;12758;47.890;11.694;2023-01-28T08:35:16;94293.19;;;-0.77;100.00
24610;BME280;12758;47.890;11.694;2023-01-28T08:37:43;94308.22;;;-0.87;100.00
24610;BME280;12758;47.890;11.694;2023-01-28T08:40:10;94312.50;;;-0.86;100.00
24610;BME280;12758;47.890;11.694;2023-01-28T08:42:36;94310.34;;;-0.89;100.00
24610;BME280;12758;47.890;11.694;2023-01-28T08:45:02;94316.28;;;-0.82;100.00
24610;BME280;12758;47.890;11.694;2023-01-28T08:47:28;94302.88;;;-0.87;100.00
24610;BME280;12758;47.890;11.694;2023-01-28T08:49:54;94316.47;;;-0.89;100.00
24610;BME280;12758;47.890;11.694;2023-01-28T08:52:20;94313.97;;;-0.96;100.00
24610;BME280;12758;47.890;11.694;2023-01-28T08:54:47;94317.78;;;-1.08;100.00
24610;BME280;12758;47.890;11.694;2023-01-28T08:57:13;94315.31;;;-1.15;100.00
24610;BME280;12758;47.890;11.694;2023-01-28T08:59:39;94317.97;;;-1.15;100.00
24610;BME280;12758;47.890;11.694;2023-01-28T09:02:12;94314.72;;;-1.17;100.00
24610;BME280;12758;47.890;11.694;2023-01-28T09:04:38;94318.28;;;-1.11;100.00
24610;BME280;12758;47.890;11.694;2023-01-28T09:07:04;94327.16;;;-1.06;100.00
24610;BME280;12758;47.890;11.694;2023-01-28T09:09:30;94331.47;;;-1.00;100.00
24610;BME280;12758;47.890;11.694;2023-01-28T09:11:56;94327.78;;;-0.99;100.00
24610;BME280;12758;47.890;11.694;2023-01-28T09:14:22;94336.31;;;-0.97;100.00
24610;BME280;12758;47.890;11.694;2023-01-28T09:16:48;94337.47;;;-0.92;100.00
24610;BME280;12758;47.890;11.694;2023-01-28T09:19:14;94340.13;;;-0.92;100.00
24610;BME280;12758;47.890;11.694;2023-01-28T09:21:40;94340.69;;;-0.90;100.00
24610;BME280;12758;47.890;11.694;2023-01-28T09:24:09;94339.66;;;-0.89;100.00
24610;BME280;12758;47.890;11.694;2023-01-28T09:26:35;94336.50;;;-0.86;100.00
24610;BME280;12758;47.890;11.694;2023-01-28T09:29:03;94341.06;;;-0.82;100.00
24610;BME280;12758;47.890;11.694;2023-01-28T09:31:29;94341.88;;;-0.81;100.00
24610;BME280;12758;47.890;11.694;2023-01-28T09:33:55;94339.22;;;-0.81;100.00
24610;BME280;12758;47.890;11.694;2023-01-28T09:36:21;94343.25;;;-0.79;100.00
24610;BME280;12758;47.890;11.694;2023-01-28T09:38:48;94338.72;;;-0.78;100.00
24610;BME280;12758;47.890;11.694;2023-01-28T09:41:23;94336.63;;;-0.76;100.00
24610;BME280;12758;47.890;11.694;2023-01-28T09:43:57;94329.66;;;-0.77;100.00
24610;BME280;12758;47.890;11.694;2023-01-28T09:46:31;94336.06;;;-0.78;100.00
24610;BME280;12758;47.890;11.694;2023-01-28T09:48:57;94336.06;;;-0.78;100.00
24610;BME280;12758;47.890;11.694;2023-01-28T09:51:30;94339.03;;;-0.75;100.00
24610;BME280;12758;47.890;11.694;2023-01-28T09:53:58;94336.94;;;-0.73;100.00
24610;BME280;12758;47.890;11.694;2023-01-28T09:56:29;94332.91;;;-0.75;100.00
24610;BME280;12758;47.890;11.694;2023-01-28T09:58:56;94330.31;;;-0.70;100.00
24610;BME280;12758;47.890;11.694;2023-01-28T10:01:35;94332.22;;;-0.65;100.00
24610;BME280;12758;47.890;11.694;2023-01-28T10:04:05;94335.78;;;-0.60;100.00
24610;BME280;12758;47.890;11.694;2023-01-28T10:06:42;94320.84;;;-0.61;100.00
24610;BME280;12758;47.890;11.694;2023-01-28T10:09:24;94315.94;;;-0.47;100.00
24610;BME280;12758;47.890;11.694;2023-01-28T10:11:59;94304.53;;;-0.42;100.00
24610;BME280;12758;47.890;11.694;2023-01-28T10:14:34;94300.84;;;-0.41;100.00
24610;BME280;12758;47.890;11.694;2023-01-28T10:17:06;94309.88;;;-0.42;100.00
24610;BME280;12758;47.890;11.694;2023-01-28T10:19:36;94309.38;;;-0.39;100.00
24610;BME280;12758;47.890;11.694;2023-01-28T10:22:06;94309.88;;;-0.42;100.00
24610;BME280;12758;47.890;11.694;2023-01-28T10:24:35;94308.25;;;-0.43;100.00
24610;BME280;12758;47.890;11.694;2023-01-28T10:27:09;94311.00;;;-0.38;100.00
24610;BME280;12758;47.890;11.694;2023-01-28T10:29:37;94313.66;;;-0.60;100.00
24610;BME280;12758;47.890;11.694;2023-01-28T10:32:15;94317.16;;;-0.55;100.00
24610;BME280;12758;47.890;11.694;2023-01-28T10:34:42;94309.63;;;-0.63;100.00
24610;BME280;12758;47.890;11.694;2023-01-28T10:37:08;94307.03;;;-0.58;100.00
24610;BME280;12758;47.890;11.694;2023-01-28T10:39:37;94298.78;;;-0.56;100.00
24610;BME280;12758;47.890;11.694;2023-01-28T10:42:12;94301.94;;;-0.37;100.00
24610;BME280;12758;47.890;11.694;2023-01-28T10:44:41;94297.59;;;-0.43;100.00
24610;BME280;12758;47.890;11.694;2023-01-28T10:47:11;94305.97;;;-0.35;100.00
24610;BME280;12758;47.890;11.694;2023-01-28T10:49:41;94301.44;;;-0.34;100.00
24610;BME280;12758;47.890;11.694;2023-01-28T10:52:11;94296.03;;;-0.39;100.00
24610;BME280;12758;47.890;11.694;2023-01-28T10:54:37;94292.44;;;-0.28;100.00
24610;BME280;12758;47.890;11.694;2023-01-28T10:57:04;94289.78;;;-0.28;100.00
24610;BME280;12758;47.890;11.694;2023-01-28T10:59:34;94291.66;;;-0.51;100.00
24610;BME280;12758;47.890;11.694;2023-01-28T11:02:21;94293.81;;;-0.48;100.00
24610;BME280;12758;47.890;11.694;2023-01-28T11:04:59;94296.03;;;-0.39;100.00
24610;BME280;12758;47.890;11.694;2023-01-28T11:07:26;94286.50;;;-0.35;100.00
24610;BME280;12758;47.890;11.694;2023-01-28T11:09:52;94295.50;;;-0.41;100.00
24610;BME280;12758;47.890;11.694;2023-01-28T11:12:19;94282.78;;;-0.34;100.00
24610;BME280;12758;47.890;11.694;2023-01-28T11:14:49;94286.44;;;-0.40;100.00
24610;BME280;12758;47.890;11.694;2023-01-28T11:17:16;94293.38;;;-0.39;100.00
24610;BME280;12758;47.890;11.694;2023-01-28T11:19:44;94291.88;;;-0.30;100.00
24610;BME280;12758;47.890;11.694;2023-01-28T11:22:16;94301.44;;;-0.34;100.00
24610;BME280;12758;47.890;11.694;2023-01-28T11:24:45;94297.19;;;-0.35;100.00
24610;BME280;12758;47.890;11.694;2023-01-28T11:27:14;94294.50;;;-0.35;100.00
24610;BME280;12758;47.890;11.694;2023-01-28T11:29:41;94296.66;;;-0.32;100.00
24610;BME280;12758;47.890;11.694;2023-01-28T11:32:15;94298.22;;;-0.36;100.00
24610;BME280;12758;47.890;11.694;2023-01-28T11:34:48;94291.56;;;-0.34;100.00
24610;BME280;12758;47.890;11.694;2023-01-28T11:37:14;94298.81;;;-0.29;100.00
24610;BME280;12758;47.890;11.694;2023-01-28T11:39:41;94302.84;;;-0.27;100.00
24610;BME280;12758;47.890;11.694;2023-01-28T11:42:12;94294.53;;;-0.30;100.00
24610;BME280;12758;47.890;11.694;2023-01-28T11:44:39;94299.44;;;-0.22;100.00
24610;BME280;12758;47.890;11.694;2023-01-28T11:50:15;94303.66;;;-0.26;100.00
24610;BME280;12758;47.890;11.694;2023-01-28T11:52:51;94293.84;;;-0.64;100.00
24610;BME280;12758;47.890;11.694;2023-01-28T11:55:26;94304.03;;;-0.39;100.00
24610;BME280;12758;47.890;11.694;2023-01-28T11:58:02;94300.44;;;-0.28;100.00
24610;BME280;12758;47.890;11.694;2023-01-28T12:00:36;94295.63;;;-0.31;100.00
24610;BME280;12758;47.890;11.694;2023-01-28T12:03:14;94296.09;;;-0.34;100.00
24610;BME280;12758;47.890;11.694;2023-01-28T12:05:50;94289.97;;;-0.35;100.00
24610;BME280;12758;47.890;11.694;2023-01-28T12:08:21;94291.78;;;-0.40;100.00
24610;BME280;12758;47.890;11.694;2023-01-28T12:10:57;94302.13;;;-0.44;100.00
24610;BME280;12758;47.890;11.694;2023-01-28T12:13:34;94307.69;;;-0.45;100.00
24610;BME280;12758;47.890;11.694;2023-01-28T12:16:16;94304.53;;;-0.42;100.00
24610;BME280;12758;47.890;11.694;2023-01-28T12:19:06;94302.13;;;-0.44;100.00
24610;BME280;12758;47.890;11.694;2023-01-28T12:21:42;94304.78;;;-0.44;100.00
24610;BME280;12758;47.890;11.694;2023-01-28T12:24:21;94309.88;;;-0.42;100.00
24610;BME280;12758;47.890;11.694;2023-01-28T12:26:54;94308.06;;;-0.59;100.00
24610;BME280;12758;47.890;11.694;2023-01-28T12:29:26;94301.94;;;-0.37;100.00
24610;BME280;12758;47.890;11.694;2023-01-28T12:32:08;94303.03;;;-0.33;100.00
24610;BME280;12758;47.890;11.694;2023-01-28T12:34:47;94309.13;;;-0.38;100.00
24610;BME280;12758;47.890;11.694;2023-01-28T12:37:24;94303.00;;;-0.38;100.00
24610;BME280;12758;47.890;11.694;2023-01-28T12:40:00;94308.25;;;-0.43;100.00
24610;BME280;12758;47.890;11.694;2023-01-28T12:42:34;94310.34;;;-0.45;100.00
24610;BME280;12758;47.890;11.694;2023-01-28T12:45:04;94302.94;;;-0.43;100.00
24610;BME280;12758;47.890;11.694;2023-01-28T12:47:37;94300.75;;;-0.47;100.00
24610;BME280;12758;47.890;11.694;2023-01-28T12:50:10;94303.41;;;-0.47;100.00
24610;BME280;12758;47.890;11.694;2023-01-28T12:52:42;94306.66;;;-0.44;100.00